sensor_id;sensor_type;location;lat;lon;timestamp;P1;durP1;ratioP1;P2;durP2;ratioP2
3573;SDS011;1801;51.050;6.246;2024-02-21T00:01:24;29.73;;;10.30;;
3573;SDS011;1801;51.050;6.246;2024-02-21T00:03:49;24.97;;;9.90;;
3573;SDS011;1801;51.050;6.246;2024-02-21T00:06:14;23.03;;;9.13;;
3573;SDS011;1801;51.050;6.246;2024-02-21T00:08:40;24.37;;;9.77;;
3573;SDS011;1801;51.050;6.246;2024-02-21T00:11:05;24.00;;;8.00;;
3573;SDS011;1801;51.050;6.246;2024-02-21T00:13:30;30.00;;;9.03;;
3573;SDS011;1801;51.050;6.246;2024-02-21T00:15:56;23.00;;;8.30;;
3573;SDS011;1801;51.050;6.246;2024-02-21T00:18:21;29.00;;;10.13;;
3573;SDS011;1801;51.050;6.246;2024-02-21T00:20:46;24.60;;;7.87;;
3573;SDS011;1801;51.050;6.246;2024-02-21T00:23:11;20.50;;;9.23;;
3573;SDS011;1801;51.050;6.246;2024-02-21T00:25:37;36.10;;;10.00;;
3573;SDS011;1801;51.050;6.246;2024-02-21T00:28:02;27.97;;;9.23;;
3573;SDS011;1801;51.050;6.246;2024-02-21T00:30:27;20.63;;;7.77;;
3573;SDS011;1801;51.050;6.246;2024-02-21T00:32:52;33.17;;;8.83;;
3573;SDS011;1801;51.050;6.246;2024-02-21T00:35:18;25.47;;;9.30;;
3573;SDS011;1801;51.050;6.246;2024-02-21T00:37:43;27.13;;;8.20;;
3573;SDS011;1801;51.050;6.246;2024-02-21T00:40:08;28.07;;;7.97;;
3573;SDS011;1801;51.050;6.246;2024-02-21T00:42:33;27.03;;;8.83;;
3573;SDS011;1801;51.050;6.246;2024-02-21T00:44:59;19.33;;;8.90;;
3573;SDS011;1801;51.050;6.246;2024-02-21T00:47:24;25.37;;;7.03;;
3573;SDS011;1801;51.050;6.246;2024-02-21T00:49:49;24.07;;;8.77;;
3573;SDS011;1801;51.050;6.246;2024-02-21T00:52:14;25.77;;;7.40;;
3573;SDS011;1801;51.050;6.246;2024-02-21T00:54:40;34.40;;;9.13;;
3573;SDS011;1801;51.050;6.246;2024-02-21T00:57:05;25.47;;;9.60;;
3573;SDS011;1801;51.050;6.246;2024-02-21T00:59:30;24.37;;;8.40;;
3573;SDS011;1801;51.050;6.246;2024-02-21T01:01:55;25.90;;;7.73;;
3573;SDS011;1801;51.050;6.246;2024-02-21T01:04:20;21.30;;;7.83;;
3573;SDS011;1801;51.050;6.246;2024-02-21T01:06:45;29.37;;;10.10;;
3573;SDS011;1801;51.050;6.246;2024-02-21T01:09:11;22.23;;;9.30;;
3573;SDS011;1801;51.050;6.246;2024-02-21T01:11:36;37.70;;;8.37;;
3573;SDS011;1801;51.050;6.246;2024-02-21T01:14:01;21.13;;;8.80;;
3573;SDS011;1801;51.050;6.246;2024-02-21T01:16:26;26.43;;;8.23;;
3573;SDS011;1801;51.050;6.246;2024-02-21T01:18:52;23.43;;;8.07;;
3573;SDS011;1801;51.050;6.246;2024-02-21T01:21:17;26.70;;;8.03;;
3573;SDS011;1801;51.050;6.246;2024-02-21T01:23:42;16.03;;;7.37;;
3573;SDS011;1801;51.050;6.246;2024-02-21T01:26:07;19.87;;;9.13;;
3573;SDS011;1801;51.050;6.246;2024-02-21T01:28:33;26.83;;;8.97;;
3573;SDS011;1801;51.050;6.246;2024-02-21T01:30:58;25.47;;;9.17;;
3573;SDS011;1801;51.050;6.246;2024-02-21T01:33:24;23.77;;;8.67;;
3573;SDS011;1801;51.050;6.246;2024-02-21T01:35:49;19.53;;;6.70;;
3573;SDS011;1801;51.050;6.246;2024-02-21T01:38:15;25.70;;;7.47;;
3573;SDS011;1801;51.050;6.246;2024-02-21T01:40:40;30.33;;;7.30;;
3573;SDS011;1801;51.050;6.246;2024-02-21T01:43:14;21.60;;;8.73;;
3573;SDS011;1801;51.050;6.246;2024-02-21T01:45:39;25.10;;;9.23;;
3573;SDS011;1801;51.050;6.246;2024-02-21T01:48:05;28.13;;;8.50;;
3573;SDS011;1801;51.050;6.246;2024-02-21T01:50:31;24.07;;;8.67;;
3573;SDS011;1801;51.050;6.246;2024-02-21T01:52:56;23.37;;;8.10;;
3573;SDS011;1801;51.050;6.246;2024-02-21T01:55:22;20.70;;;8.70;;
3573;SDS011;1801;51.050;6.246;2024-02-21T01:57:47;24.30;;;9.60;;
3573;SDS011;1801;51.050;6.246;2024-02-21T02:00:12;28.20;;;9.17;;
3573;SDS011;1801;51.050;6.246;2024-02-21T02:02:38;27.87;;;8.80;;
3573;SDS011;1801;51.050;6.246;2024-02-21T02:05:04;35.60;;;10.00;;
3573;SDS011;1801;51.050;6.246;2024-02-21T02:07:31;23.90;;;8.50;;
3573;SDS011;1801;51.050;6.246;2024-02-21T02:09:56;27.30;;;11.70;;
3573;SDS011;1801;51.050;6.246;2024-02-21T02:12:21;22.13;;;9.03;;
3573;SDS011;1801;51.050;6.246;2024-02-21T02:14:56;19.73;;;7.77;;
3573;SDS011;1801;51.050;6.246;2024-02-21T02:17:22;17.73;;;7.93;;
3573;SDS011;1801;51.050;6.246;2024-02-21T02:19:47;16.57;;;7.50;;
3573;SDS011;1801;51.050;6.246;2024-02-21T02:22:14;22.93;;;9.90;;
3573;SDS011;1801;51.050;6.246;2024-02-21T02:24:40;24.53;;;9.07;;
3573;SDS011;1801;51.050;6.246;2024-02-21T02:27:05;27.70;;;8.70;;
3573;SDS011;1801;51.050;6.246;2024-02-21T02:29:31;27.93;;;10.27;;
3573;SDS011;1801;51.050;6.246;2024-02-21T02:31:57;23.70;;;8.70;;
3573;SDS011;1801;51.050;6.246;2024-02-21T02:34:22;27.10;;;9.57;;
3573;SDS011;1801;51.050;6.246;2024-02-21T02:36:47;23.13;;;8.27;;
3573;SDS011;1801;51.050;6.246;2024-02-21T02:39:14;29.25;;;8.50;;
3573;SDS011;1801;51.050;6.246;2024-02-21T02:41:39;24.93;;;8.50;;
3573;SDS011;1801;51.050;6.246;2024-02-21T02:44:05;15.27;;;8.50;;
3573;SDS011;1801;51.050;6.246;2024-02-21T02:46:30;20.03;;;8.10;;
3573;SDS011;1801;51.050;6.246;2024-02-21T02:48:55;26.33;;;8.83;;
3573;SDS011;1801;51.050;6.246;2024-02-21T02:51:20;23.73;;;9.10;;
3573;SDS011;1801;51.050;6.246;2024-02-21T02:53:45;21.47;;;7.13;;
3573;SDS011;1801;51.050;6.246;2024-02-21T02:56:14;19.07;;;7.50;;
3573;SDS011;1801;51.050;6.246;2024-02-21T02:58:39;28.35;;;7.45;;
3573;SDS011;1801;51.050;6.246;2024-02-21T03:01:06;21.27;;;7.83;;
3573;SDS011;1801;51.050;6.246;2024-02-21T03:03:31;25.63;;;7.70;;
3573;SDS011;1801;51.050;6.246;2024-02-21T03:05:56;20.20;;;8.13;;
3573;SDS011;1801;51.050;6.246;2024-02-21T03:08:22;19.53;;;7.40;;
3573;SDS011;1801;51.050;6.246;2024-02-21T03:10:47;18.67;;;7.20;;
3573;SDS011;1801;51.050;6.246;2024-02-21T03:13:12;20.87;;;7.97;;
3573;SDS011;1801;51.050;6.246;2024-02-21T03:15:38;22.83;;;10.00;;
3573;SDS011;1801;51.050;6.246;2024-02-21T03:18:04;18.50;;;8.00;;
3573;SDS011;1801;51.050;6.246;2024-02-21T03:20:29;19.40;;;7.03;;
3573;SDS011;1801;51.050;6.246;2024-02-21T03:22:54;19.13;;;7.33;;
3573;SDS011;1801;51.050;6.246;2024-02-21T03:25:20;19.10;;;6.20;;
3573;SDS011;1801;51.050;6.246;2024-02-21T03:27:45;12.43;;;6.40;;
3573;SDS011;1801;51.050;6.246;2024-02-21T03:30:10;14.17;;;6.17;;
3573;SDS011;1801;51.050;6.246;2024-02-21T03:32:35;17.17;;;8.17;;
3573;SDS011;1801;51.050;6.246;2024-02-21T03:35:01;21.07;;;8.37;;
3573;SDS011;1801;51.050;6.246;2024-02-21T03:37:26;16.10;;;6.87;;
3573;SDS011;1801;51.050;6.246;2024-02-21T03:39:51;16.00;;;6.00;;
3573;SDS011;1801;51.050;6.246;2024-02-21T03:42:16;15.83;;;6.50;;
3573;SDS011;1801;51.050;6.246;2024-02-21T03:44:42;24.50;;;7.73;;
3573;SDS011;1801;51.050;6.246;2024-02-21T03:47:07;20.53;;;7.07;;
3573;SDS011;1801;51.050;6.246;2024-02-21T03:49:35;27.00;;;7.10;;
3573;SDS011;1801;51.050;6.246;2024-02-21T03:52:00;26.10;;;7.03;;
3573;SDS011;1801;51.050;6.246;2024-02-21T03:54:25;24.87;;;6.53;;
3573;SDS011;1801;51.050;6.246;2024-02-21T03:56:51;13.30;;;6.33;;
3573;SDS011;1801;51.050;6.246;2024-02-21T03:59:16;23.63;;;7.63;;
3573;SDS011;1801;51.050;6.246;2024-02-21T04:01:41;25.57;;;8.77;;
3573;SDS011;1801;51.050;6.246;2024-02-21T04:04:06;17.60;;;7.83;;
3573;SDS011;1801;51.050;6.246;2024-02-21T04:06:32;22.57;;;6.57;;
3573;SDS011;1801;51.050;6.246;2024-02-21T04:08:57;26.33;;;6.53;;
3573;SDS011;1801;51.050;6.246;2024-02-21T04:11:22;17.77;;;5.50;;
3573;SDS011;1801;51.050;6.246;2024-02-21T04:13:48;21.70;;;7.77;;
3573;SDS011;1801;51.050;6.246;2024-02-21T04:16:15;18.17;;;6.13;;
3573;SDS011;1801;51.050;6.246;2024-02-21T04:18:41;19.65;;;6.13;;
3573;SDS011;1801;51.050;6.246;2024-02-21T04:21:06;19.00;;;6.60;;
3573;SDS011;1801;51.050;6.246;2024-02-21T04:23:31;18.60;;;6.10;;
3573;SDS011;1801;51.050;6.246;2024-02-21T04:25:56;18.63;;;5.90;;
3573;SDS011;1801;51.050;6.246;2024-02-21T04:28:22;19.23;;;6.83;;
3573;SDS011;1801;51.050;6.246;2024-02-21T04:30:47;22.27;;;7.50;;
3573;SDS011;1801;51.050;6.246;2024-02-21T04:33:12;14.53;;;6.60;;
3573;SDS011;1801;51.050;6.246;2024-02-21T04:35:37;17.27;;;6.63;;
3573;SDS011;1801;51.050;6.246;2024-02-21T04:38:03;16.57;;;6.80;;
3573;SDS011;1801;51.050;6.246;2024-02-21T04:40:29;12.87;;;5.67;;
3573;SDS011;1801;51.050;6.246;2024-02-21T04:42:54;17.57;;;7.20;;
3573;SDS011;1801;51.050;6.246;2024-02-21T04:45:19;22.20;;;7.50;;
3573;SDS011;1801;51.050;6.246;2024-02-21T04:47:44;21.43;;;7.50;;
3573;SDS011;1801;51.050;6.246;2024-02-21T04:50:09;17.80;;;6.73;;
3573;SDS011;1801;51.050;6.246;2024-02-21T04:52:35;19.30;;;7.73;;
3573;SDS011;1801;51.050;6.246;2024-02-21T04:55:00;22.87;;;6.70;;
3573;SDS011;1801;51.050;6.246;2024-02-21T04:57:25;21.50;;;6.73;;
3573;SDS011;1801;51.050;6.246;2024-02-21T04:59:50;24.47;;;6.20;;
3573;SDS011;1801;51.050;6.246;2024-02-21T05:02:15;21.90;;;8.40;;
3573;SDS011;1801;51.050;6.246;2024-02-21T05:04:42;13.33;;;7.00;;
3573;SDS011;1801;51.050;6.246;2024-02-21T05:07:07;18.23;;;6.57;;
3573;SDS011;1801;51.050;6.246;2024-02-21T05:09:32;19.43;;;6.70;;
3573;SDS011;1801;51.050;6.246;2024-02-21T05:11:58;29.73;;;7.07;;
3573;SDS011;1801;51.050;6.246;2024-02-21T05:14:26;20.63;;;6.73;;
3573;SDS011;1801;51.050;6.246;2024-02-21T05:16:54;23.48;;;6.85;;
3573;SDS011;1801;51.050;6.246;2024-02-21T05:19:20;16.37;;;6.00;;
3573;SDS011;1801;51.050;6.246;2024-02-21T05:21:45;31.70;;;7.60;;
3573;SDS011;1801;51.050;6.246;2024-02-21T05:24:10;23.27;;;6.90;;
3573;SDS011;1801;51.050;6.246;2024-02-21T05:26:36;13.60;;;6.80;;
3573;SDS011;1801;51.050;6.246;2024-02-21T05:29:02;21.37;;;7.00;;
3573;SDS011;1801;51.050;6.246;2024-02-21T05:31:42;20.83;;;6.70;;
3573;SDS011;1801;51.050;6.246;2024-02-21T05:34:13;19.95;;;7.07;;
3573;SDS011;1801;51.050;6.246;2024-02-21T05:36:38;28.03;;;7.40;;
3573;SDS011;1801;51.050;6.246;2024-02-21T05:39:03;20.60;;;6.67;;
3573;SDS011;1801;51.050;6.246;2024-02-21T05:41:29;22.37;;;7.37;;
3573;SDS011;1801;51.050;6.246;2024-02-21T05:43:54;19.63;;;7.23;;
3573;SDS011;1801;51.050;6.246;2024-02-21T05:46:19;20.00;;;5.77;;
3573;SDS011;1801;51.050;6.246;2024-02-21T05:48:44;19.30;;;6.23;;
3573;SDS011;1801;51.050;6.246;2024-02-21T05:51:10;18.60;;;6.47;;
3573;SDS011;1801;51.050;6.246;2024-02-21T05:53:36;19.30;;;6.57;;
3573;SDS011;1801;51.050;6.246;2024-02-21T05:56:06;22.38;;;7.18;;
3573;SDS011;1801;51.050;6.246;2024-02-21T05:58:35;20.57;;;6.37;;
3573;SDS011;1801;51.050;6.246;2024-02-21T06:01:01;12.23;;;5.33;;
3573;SDS011;1801;51.050;6.246;2024-02-21T06:03:28;18.07;;;5.50;;
3573;SDS011;1801;51.050;6.246;2024-02-21T06:05:53;16.53;;;5.30;;
3573;SDS011;1801;51.050;6.246;2024-02-21T06:08:19;19.63;;;5.70;;
3573;SDS011;1801;51.050;6.246;2024-02-21T06:10:45;20.20;;;5.40;;
3573;SDS011;1801;51.050;6.246;2024-02-21T06:13:10;12.90;;;6.10;;
3573;SDS011;1801;51.050;6.246;2024-02-21T06:15:35;13.10;;;5.80;;
3573;SDS011;1801;51.050;6.246;2024-02-21T06:18:00;15.03;;;4.93;;
3573;SDS011;1801;51.050;6.246;2024-02-21T06:20:25;12.20;;;4.80;;
3573;SDS011;1801;51.050;6.246;2024-02-21T06:22:51;11.40;;;4.90;;
3573;SDS011;1801;51.050;6.246;2024-02-21T06:25:16;14.47;;;5.33;;
3573;SDS011;1801;51.050;6.246;2024-02-21T06:27:41;13.70;;;4.70;;
3573;SDS011;1801;51.050;6.246;2024-02-21T06:30:06;13.33;;;5.10;;
3573;SDS011;1801;51.050;6.246;2024-02-21T06:32:32;8.13;;;4.10;;
3573;SDS011;1801;51.050;6.246;2024-02-21T06:34:57;18.83;;;6.70;;
3573;SDS011;1801;51.050;6.246;2024-02-21T06:37:22;14.10;;;5.23;;
3573;SDS011;1801;51.050;6.246;2024-02-21T06:39:47;23.43;;;5.40;;
3573;SDS011;1801;51.050;6.246;2024-02-21T06:42:12;17.07;;;4.03;;
3573;SDS011;1801;51.050;6.246;2024-02-21T06:44:37;15.57;;;4.63;;
3573;SDS011;1801;51.050;6.246;2024-02-21T06:47:05;14.60;;;5.00;;
3573;SDS011;1801;51.050;6.246;2024-02-21T06:49:30;16.90;;;4.83;;
3573;SDS011;1801;51.050;6.246;2024-02-21T06:51:55;19.50;;;5.50;;
3573;SDS011;1801;51.050;6.246;2024-02-21T06:54:21;17.67;;;5.90;;
3573;SDS011;1801;51.050;6.246;2024-02-21T06:56:46;13.30;;;5.17;;
3573;SDS011;1801;51.050;6.246;2024-02-21T06:59:11;16.50;;;5.57;;
3573;SDS011;1801;51.050;6.246;2024-02-21T07:01:43;12.83;;;5.90;;
3573;SDS011;1801;51.050;6.246;2024-02-21T07:04:09;20.43;;;6.00;;
3573;SDS011;1801;51.050;6.246;2024-02-21T07:06:34;20.90;;;6.00;;
3573;SDS011;1801;51.050;6.246;2024-02-21T07:08:59;15.63;;;5.50;;
3573;SDS011;1801;51.050;6.246;2024-02-21T07:11:24;13.50;;;5.50;;
3573;SDS011;1801;51.050;6.246;2024-02-21T07:13:49;26.30;;;6.40;;
3573;SDS011;1801;51.050;6.246;2024-02-21T07:16:15;18.83;;;6.10;;
3573;SDS011;1801;51.050;6.246;2024-02-21T07:18:40;10.33;;;3.57;;
3573;SDS011;1801;51.050;6.246;2024-02-21T07:21:05;21.03;;;5.17;;
3573;SDS011;1801;51.050;6.246;2024-02-21T07:23:30;10.37;;;4.30;;
3573;SDS011;1801;51.050;6.246;2024-02-21T07:25:56;8.40;;;4.23;;
3573;SDS011;1801;51.050;6.246;2024-02-21T07:28:21;9.67;;;3.67;;
3573;SDS011;1801;51.050;6.246;2024-02-21T07:30:46;17.03;;;4.30;;
3573;SDS011;1801;51.050;6.246;2024-02-21T07:33:11;11.00;;;4.50;;
3573;SDS011;1801;51.050;6.246;2024-02-21T07:35:36;11.83;;;4.03;;
3573;SDS011;1801;51.050;6.246;2024-02-21T07:38:07;11.68;;;3.92;;
3573;SDS011;1801;51.050;6.246;2024-02-21T07:40:33;7.80;;;3.90;;
3573;SDS011;1801;51.050;6.246;2024-02-21T07:42:58;13.50;;;4.80;;
3573;SDS011;1801;51.050;6.246;2024-02-21T07:45:23;17.53;;;5.03;;
3573;SDS011;1801;51.050;6.246;2024-02-21T07:47:49;7.53;;;3.13;;
3573;SDS011;1801;51.050;6.246;2024-02-21T07:50:14;14.60;;;4.03;;
3573;SDS011;1801;51.050;6.246;2024-02-21T07:52:40;17.20;;;4.43;;
3573;SDS011;1801;51.050;6.246;2024-02-21T07:55:05;9.50;;;3.90;;
3573;SDS011;1801;51.050;6.246;2024-02-21T07:57:30;19.23;;;4.97;;
3573;SDS011;1801;51.050;6.246;2024-02-21T07:59:55;11.60;;;4.00;;
3573;SDS011;1801;51.050;6.246;2024-02-21T08:02:20;9.60;;;5.73;;
3573;SDS011;1801;51.050;6.246;2024-02-21T08:04:46;10.63;;;4.63;;
3573;SDS011;1801;51.050;6.246;2024-02-21T08:07:11;11.50;;;4.03;;
3573;SDS011;1801;51.050;6.246;2024-02-21T08:09:39;13.43;;;4.63;;
3573;SDS011;1801;51.050;6.246;2024-02-21T08:12:04;16.00;;;5.77;;
3573;SDS011;1801;51.050;6.246;2024-02-21T08:14:30;12.93;;;5.00;;
3573;SDS011;1801;51.050;6.246;2024-02-21T08:16:55;16.17;;;4.40;;
3573;SDS011;1801;51.050;6.246;2024-02-21T08:19:20;15.30;;;4.80;;
3573;SDS011;1801;51.050;6.246;2024-02-21T08:21:46;9.90;;;5.40;;
3573;SDS011;1801;51.050;6.246;2024-02-21T08:24:14;12.43;;;4.33;;
3573;SDS011;1801;51.050;6.246;2024-02-21T08:26:40;17.93;;;5.90;;
3573;SDS011;1801;51.050;6.246;2024-02-21T08:29:05;18.13;;;4.40;;
3573;SDS011;1801;51.050;6.246;2024-02-21T08:31:30;23.07;;;5.60;;
3573;SDS011;1801;51.050;6.246;2024-02-21T08:33:59;15.23;;;5.40;;
3573;SDS011;1801;51.050;6.246;2024-02-21T08:36:29;23.00;;;5.43;;
3573;SDS011;1801;51.050;6.246;2024-02-21T08:38:54;15.40;;;4.93;;
3573;SDS011;1801;51.050;6.246;2024-02-21T08:41:20;9.30;;;3.80;;
3573;SDS011;1801;51.050;6.246;2024-02-21T08:43:48;13.93;;;4.07;;
3573;SDS011;1801;51.050;6.246;2024-02-21T08:46:13;10.10;;;4.70;;
3573;SDS011;1801;51.050;6.246;2024-02-21T08:48:38;13.97;;;5.73;;
3573;SDS011;1801;51.050;6.246;2024-02-21T08:51:03;8.40;;;4.37;;
3573;SDS011;1801;51.050;6.246;2024-02-21T08:53:28;10.93;;;4.00;;
3573;SDS011;1801;51.050;6.246;2024-02-21T08:55:54;7.70;;;3.50;;
3573;SDS011;1801;51.050;6.246;2024-02-21T08:58:19;13.83;;;3.80;;
3573;SDS011;1801;51.050;6.246;2024-02-21T09:00:44;13.00;;;4.90;;
3573;SDS011;1801;51.050;6.246;2024-02-21T09:03:09;15.23;;;5.20;;
3573;SDS011;1801;51.050;6.246;2024-02-21T09:05:34;16.80;;;3.83;;
3573;SDS011;1801;51.050;6.246;2024-02-21T09:08:00;12.33;;;4.07;;
3573;SDS011;1801;51.050;6.246;2024-02-21T09:10:25;10.33;;;3.43;;
3573;SDS011;1801;51.050;6.246;2024-02-21T09:12:51;17.27;;;4.57;;
3573;SDS011;1801;51.050;6.246;2024-02-21T09:15:16;5.97;;;3.77;;
3573;SDS011;1801;51.050;6.246;2024-02-21T09:17:41;15.93;;;4.97;;
3573;SDS011;1801;51.050;6.246;2024-02-21T09:20:06;11.33;;;3.60;;
3573;SDS011;1801;51.050;6.246;2024-02-21T09:22:32;6.77;;;3.60;;
3573;SDS011;1801;51.050;6.246;2024-02-21T09:24:59;11.00;;;3.40;;
3573;SDS011;1801;51.050;6.246;2024-02-21T09:27:25;8.93;;;3.93;;
3573;SDS011;1801;51.050;6.246;2024-02-21T09:29:50;11.80;;;3.30;;
3573;SDS011;1801;51.050;6.246;2024-02-21T09:32:15;8.57;;;3.50;;
3573;SDS011;1801;51.050;6.246;2024-02-21T09:34:40;5.80;;;3.57;;
3573;SDS011;1801;51.050;6.246;2024-02-21T09:37:06;13.13;;;3.40;;
3573;SDS011;1801;51.050;6.246;2024-02-21T09:39:31;12.47;;;3.80;;
3573;SDS011;1801;51.050;6.246;2024-02-21T09:41:59;10.57;;;3.53;;
3573;SDS011;1801;51.050;6.246;2024-02-21T09:44:27;11.03;;;3.23;;
3573;SDS011;1801;51.050;6.246;2024-02-21T09:46:57;14.00;;;3.83;;
3573;SDS011;1801;51.050;6.246;2024-02-21T09:51:56;6.67;;;3.27;;
3573;SDS011;1801;51.050;6.246;2024-02-21T09:54:22;7.23;;;3.53;;
3573;SDS011;1801;51.050;6.246;2024-02-21T09:56:47;8.47;;;3.07;;
3573;SDS011;1801;51.050;6.246;2024-02-21T09:59:16;12.90;;;4.20;;
3573;SDS011;1801;51.050;6.246;2024-02-21T10:01:44;12.07;;;4.10;;
3573;SDS011;1801;51.050;6.246;2024-02-21T10:04:09;5.53;;;3.03;;
3573;SDS011;1801;51.050;6.246;2024-02-21T10:06:35;13.90;;;3.67;;
3573;SDS011;1801;51.050;6.246;2024-02-21T10:09:02;10.27;;;3.43;;
3573;SDS011;1801;51.050;6.246;2024-02-21T10:11:27;5.57;;;3.40;;
3573;SDS011;1801;51.050;6.246;2024-02-21T10:16:31;7.20;;;4.13;;
3573;SDS011;1801;51.050;6.246;2024-02-21T10:18:56;12.20;;;4.37;;
3573;SDS011;1801;51.050;6.246;2024-02-21T10:21:21;11.20;;;4.40;;
3573;SDS011;1801;51.050;6.246;2024-02-21T10:23:50;10.97;;;3.37;;
3573;SDS011;1801;51.050;6.246;2024-02-21T10:26:16;9.07;;;3.60;;
3573;SDS011;1801;51.050;6.246;2024-02-21T10:28:42;14.47;;;4.87;;
3573;SDS011;1801;51.050;6.246;2024-02-21T10:31:09;16.20;;;4.20;;
3573;SDS011;1801;51.050;6.246;2024-02-21T10:33:35;14.13;;;3.30;;
3573;SDS011;1801;51.050;6.246;2024-02-21T10:36:07;5.57;;;3.27;;
3573;SDS011;1801;51.050;6.246;2024-02-21T10:38:33;9.00;;;3.47;;
3573;SDS011;1801;51.050;6.246;2024-02-21T10:40:58;6.43;;;3.57;;
3573;SDS011;1801;51.050;6.246;2024-02-21T10:43:24;10.10;;;3.83;;
3573;SDS011;1801;51.050;6.246;2024-02-21T10:45:50;10.70;;;5.53;;
3573;SDS011;1801;51.050;6.246;2024-02-21T10:48:16;7.13;;;3.37;;
3573;SDS011;1801;51.050;6.246;2024-02-21T10:51:03;5.70;;;3.00;;
3573;SDS011;1801;51.050;6.246;2024-02-21T10:58:40;8.47;;;3.87;;
3573;SDS011;1801;51.050;6.246;2024-02-21T11:01:06;10.77;;;5.20;;
3573;SDS011;1801;51.050;6.246;2024-02-21T11:03:32;16.63;;;4.10;;
3573;SDS011;1801;51.050;6.246;2024-02-21T11:05:57;12.03;;;4.20;;
3573;SDS011;1801;51.050;6.246;2024-02-21T11:08:23;6.77;;;3.57;;
3573;SDS011;1801;51.050;6.246;2024-02-21T11:10:50;6.10;;;3.87;;
3573;SDS011;1801;51.050;6.246;2024-02-21T11:13:15;9.03;;;3.70;;
3573;SDS011;1801;51.050;6.246;2024-02-21T11:15:42;7.70;;;4.40;;
3573;SDS011;1801;51.050;6.246;2024-02-21T11:18:07;12.63;;;4.73;;
3573;SDS011;1801;51.050;6.246;2024-02-21T11:20:33;6.53;;;3.30;;
3573;SDS011;1801;51.050;6.246;2024-02-21T11:23:02;7.47;;;3.90;;
3573;SDS011;1801;51.050;6.246;2024-02-21T11:25:27;21.90;;;4.73;;
3573;SDS011;1801;51.050;6.246;2024-02-21T11:28:03;15.13;;;4.40;;
3573;SDS011;1801;51.050;6.246;2024-02-21T11:30:31;11.93;;;4.23;;
3573;SDS011;1801;51.050;6.246;2024-02-21T11:33:00;15.73;;;5.00;;
3573;SDS011;1801;51.050;6.246;2024-02-21T11:35:26;10.23;;;4.27;;
3573;SDS011;1801;51.050;6.246;2024-02-21T11:37:55;15.93;;;3.57;;
3573;SDS011;1801;51.050;6.246;2024-02-21T11:40:20;7.60;;;3.63;;
3573;SDS011;1801;51.050;6.246;2024-02-21T11:42:46;16.80;;;4.30;;
3573;SDS011;1801;51.050;6.246;2024-02-21T11:45:11;12.73;;;4.00;;
3573;SDS011;1801;51.050;6.246;2024-02-21T11:47:36;6.67;;;3.30;;
3573;SDS011;1801;51.050;6.246;2024-02-21T11:50:04;8.03;;;3.23;;
3573;SDS011;1801;51.050;6.246;2024-02-21T11:52:29;10.80;;;3.87;;
3573;SDS011;1801;51.050;6.246;2024-02-21T11:54:54;7.10;;;3.90;;
3573;SDS011;1801;51.050;6.246;2024-02-21T11:57:22;14.33;;;4.27;;
3573;SDS011;1801;51.050;6.246;2024-02-21T11:59:47;8.57;;;3.57;;
3573;SDS011;1801;51.050;6.246;2024-02-21T12:02:14;7.23;;;4.23;;
3573;SDS011;1801;51.050;6.246;2024-02-21T12:04:39;12.87;;;3.60;;
3573;SDS011;1801;51.050;6.246;2024-02-21T12:07:05;9.13;;;4.10;;
3573;SDS011;1801;51.050;6.246;2024-02-21T12:09:30;10.13;;;4.20;;
3573;SDS011;1801;51.050;6.246;2024-02-21T12:11:59;8.70;;;3.30;;
3573;SDS011;1801;51.050;6.246;2024-02-21T12:14:25;9.57;;;3.43;;
3573;SDS011;1801;51.050;6.246;2024-02-21T12:16:51;5.70;;;3.17;;
3573;SDS011;1801;51.050;6.246;2024-02-21T12:19:17;9.17;;;3.33;;
3573;SDS011;1801;51.050;6.246;2024-02-21T12:21:42;8.60;;;3.40;;
3573;SDS011;1801;51.050;6.246;2024-02-21T12:24:14;7.73;;;3.87;;
3573;SDS011;1801;51.050;6.246;2024-02-21T12:26:42;9.77;;;3.93;;
3573;SDS011;1801;51.050;6.246;2024-02-21T12:29:08;9.37;;;4.63;;
3573;SDS011;1801;51.050;6.246;2024-02-21T12:31:36;10.00;;;3.47;;
3573;SDS011;1801;51.050;6.246;2024-02-21T12:34:02;9.37;;;3.33;;
3573;SDS011;1801;51.050;6.246;2024-02-21T12:36:27;8.93;;;3.10;;
3573;SDS011;1801;51.050;6.246;2024-02-21T12:38:53;11.47;;;4.07;;
3573;SDS011;1801;51.050;6.246;2024-02-21T12:41:18;8.37;;;3.57;;
3573;SDS011;1801;51.050;6.246;2024-02-21T12:43:43;8.00;;;3.80;;
3573;SDS011;1801;51.050;6.246;2024-02-21T12:46:08;4.30;;;3.00;;
3573;SDS011;1801;51.050;6.246;2024-02-21T12:48:34;8.23;;;3.37;;
3573;SDS011;1801;51.050;6.246;2024-02-21T12:50:59;12.40;;;4.47;;
3573;SDS011;1801;51.050;6.246;2024-02-21T12:53:24;5.50;;;3.10;;
3573;SDS011;1801;51.050;6.246;2024-02-21T12:55:50;10.63;;;3.83;;
3573;SDS011;1801;51.050;6.246;2024-02-21T12:58:15;7.97;;;4.20;;
3573;SDS011;1801;51.050;6.246;2024-02-21T13:00:41;10.20;;;3.80;;
3573;SDS011;1801;51.050;6.246;2024-02-21T13:03:06;8.97;;;3.87;;
3573;SDS011;1801;51.050;6.246;2024-02-21T13:05:31;11.40;;;3.33;;
3573;SDS011;1801;51.050;6.246;2024-02-21T13:07:57;9.60;;;4.33;;
3573;SDS011;1801;51.050;6.246;2024-02-21T13:10:22;18.17;;;4.00;;
3573;SDS011;1801;51.050;6.246;2024-02-21T13:12:47;8.53;;;3.73;;
3573;SDS011;1801;51.050;6.246;2024-02-21T13:15:13;7.20;;;3.07;;
3573;SDS011;1801;51.050;6.246;2024-02-21T13:17:38;12.27;;;4.07;;
3573;SDS011;1801;51.050;6.246;2024-02-21T13:20:03;7.97;;;3.63;;
3573;SDS011;1801;51.050;6.246;2024-02-21T13:22:29;9.17;;;4.33;;
3573;SDS011;1801;51.050;6.246;2024-02-21T13:24:54;7.60;;;2.70;;
3573;SDS011;1801;51.050;6.246;2024-02-21T13:27:19;10.30;;;3.20;;
3573;SDS011;1801;51.050;6.246;2024-02-21T13:29:44;7.20;;;3.17;;
3573;SDS011;1801;51.050;6.246;2024-02-21T13:32:10;5.47;;;3.20;;
3573;SDS011;1801;51.050;6.246;2024-02-21T13:34:35;8.73;;;3.00;;
3573;SDS011;1801;51.050;6.246;2024-02-21T13:37:00;7.47;;;4.27;;
3573;SDS011;1801;51.050;6.246;2024-02-21T13:39:26;9.90;;;3.03;;
3573;SDS011;1801;51.050;6.246;2024-02-21T13:41:51;6.97;;;2.97;;
3573;SDS011;1801;51.050;6.246;2024-02-21T13:44:16;6.63;;;2.83;;
3573;SDS011;1801;51.050;6.246;2024-02-21T13:46:42;9.17;;;3.20;;
3573;SDS011;1801;51.050;6.246;2024-02-21T13:49:09;4.80;;;3.30;;
3573;SDS011;1801;51.050;6.246;2024-02-21T13:51:34;12.47;;;3.60;;
3573;SDS011;1801;51.050;6.246;2024-02-21T13:54:03;9.23;;;3.30;;
3573;SDS011;1801;51.050;6.246;2024-02-21T13:56:35;6.73;;;2.70;;
3573;SDS011;1801;51.050;6.246;2024-02-21T13:59:00;12.53;;;3.10;;
3573;SDS011;1801;51.050;6.246;2024-02-21T14:01:26;4.37;;;2.40;;
3573;SDS011;1801;51.050;6.246;2024-02-21T14:03:54;4.93;;;3.00;;
3573;SDS011;1801;51.050;6.246;2024-02-21T14:06:19;8.03;;;3.70;;
3573;SDS011;1801;51.050;6.246;2024-02-21T14:08:44;8.67;;;2.80;;
3573;SDS011;1801;51.050;6.246;2024-02-21T14:11:10;8.33;;;2.67;;
3573;SDS011;1801;51.050;6.246;2024-02-21T14:13:35;6.13;;;2.10;;
3573;SDS011;1801;51.050;6.246;2024-02-21T14:16:01;7.73;;;2.97;;
3573;SDS011;1801;51.050;6.246;2024-02-21T14:18:26;3.43;;;2.23;;
3573;SDS011;1801;51.050;6.246;2024-02-21T14:20:53;10.53;;;2.00;;
3573;SDS011;1801;51.050;6.246;2024-02-21T14:23:19;8.23;;;2.67;;
3573;SDS011;1801;51.050;6.246;2024-02-21T14:25:46;4.93;;;2.10;;
3573;SDS011;1801;51.050;6.246;2024-02-21T14:28:11;4.90;;;2.47;;
3573;SDS011;1801;51.050;6.246;2024-02-21T14:30:36;3.30;;;2.27;;
3573;SDS011;1801;51.050;6.246;2024-02-21T14:33:01;8.40;;;2.60;;
3573;SDS011;1801;51.050;6.246;2024-02-21T14:35:27;5.87;;;3.10;;
3573;SDS011;1801;51.050;6.246;2024-02-21T14:37:53;6.93;;;2.80;;
3573;SDS011;1801;51.050;6.246;2024-02-21T14:40:22;3.93;;;2.47;;
3573;SDS011;1801;51.050;6.246;2024-02-21T14:42:47;14.30;;;2.67;;
3573;SDS011;1801;51.050;6.246;2024-02-21T14:45:12;7.43;;;2.77;;
3573;SDS011;1801;51.050;6.246;2024-02-21T14:47:38;3.23;;;1.87;;
3573;SDS011;1801;51.050;6.246;2024-02-21T14:50:04;4.50;;;2.37;;
3573;SDS011;1801;51.050;6.246;2024-02-21T14:52:29;4.87;;;1.70;;
3573;SDS011;1801;51.050;6.246;2024-02-21T14:54:55;4.07;;;2.67;;
3573;SDS011;1801;51.050;6.246;2024-02-21T14:57:20;3.83;;;2.37;;
3573;SDS011;1801;51.050;6.246;2024-02-21T14:59:46;4.33;;;2.47;;
3573;SDS011;1801;51.050;6.246;2024-02-21T15:02:12;6.20;;;2.10;;
3573;SDS011;1801;51.050;6.246;2024-02-21T15:04:38;8.27;;;2.40;;
3573;SDS011;1801;51.050;6.246;2024-02-21T15:07:04;3.57;;;1.73;;